Time;durP1;ratioP1;P1;durP2;ratioP2;P2;SDS_P1;SDS_P2;PMS_P1;PMS_P2;Temp;Humidity;BMP_temperature;BMP_pressure;BME280_temperature;BME280_humidity;BME280_pressure;Samples;Min_cycle;Max_cycle;Signal;HPM_P1;HPM_P2
2022/08/25 00:00:43;;;;;;;;;14.25;13.50;;;;;27.15;39.55;101024.13;5099505;27;45172;-54
2022/08/25 00:03:10;;;;;;;;;12.20;11.80;;;;;27.24;39.92;101041.75;5099708;27;45378;-54
2022/08/25 00:05:36;;;;;;;;;19.20;14.40;;;;;27.20;40.37;101044.13;5099585;27;45441;-54
2022/08/25 00:08:04;;;;;;;;;7.50;3.25;;;;;27.07;40.00;101022.59;5099425;27;47044;-55
2022/08/25 00:10:31;;;;;;;;;15.00;13.40;;;;;27.14;40.31;101044.31;5099541;27;45354;-54
2022/08/25 00:12:57;;;;;;;;;14.40;12.80;;;;;27.11;40.63;101046.47;5099124;27;45466;-55
2022/08/25 00:15:22;;;;;;;;;16.50;11.75;;;;;27.09;40.78;101040.44;5081568;27;45383;-54
2022/08/25 00:17:48;;;;;;;;;13.50;11.25;;;;;27.10;40.08;101039.34;5099218;27;45331;-53
2022/08/25 00:20:14;;;;;;;;;14.00;14.00;;;;;27.08;40.71;101041.47;5099314;27;45272;-54
2022/08/25 00:22:40;;;;;;;;;14.60;13.20;;;;;27.03;40.72;101037.84;5099402;27;45455;-54
2022/08/25 00:25:07;;;;;;;;;13.00;11.00;;;;;27.06;40.62;101042.81;5099548;27;45263;-53
2022/08/25 00:27:32;;;;;;;;;16.20;11.60;;;;;27.01;40.75;101037.25;5098919;27;46497;-53
2022/08/25 00:29:59;;;;;;;;;12.00;10.75;;;;;27.02;41.31;101036.19;5099222;27;45428;-53
2022/08/25 00:32:24;;;;;;;;;14.40;10.20;;;;;27.01;41.43;101029.06;5099069;27;45540;-52
2022/08/25 00:34:50;;;;;;;;;15.00;12.75;;;;;26.98;40.99;101026.84;5099458;27;45325;-52
2022/08/25 00:37:15;;;;;;;;;15.25;14.00;;;;;26.97;41.02;101019.69;5098722;27;46154;-52
2022/08/25 00:39:41;;;;;;;;;14.00;11.75;;;;;26.93;41.05;101022.13;5099090;27;45261;-53
2022/08/25 00:42:08;;;;;;;;;13.50;10.50;;;;;26.93;40.34;101021.31;5098091;27;45441;-52
2022/08/25 00:44:34;;;;;;;;;12.80;12.80;;;;;26.89;40.99;101022.88;5099282;27;45290;-53
2022/08/25 00:47:02;;;;;;;;;15.75;14.50;;;;;26.86;41.25;101027.75;5098915;27;46094;-53
2022/08/25 00:49:44;;;;;;;;;14.00;14.00;;;;;26.78;41.17;101009.03;5098773;27;45512;-54
2022/08/25 00:52:14;;;;;;;;;12.00;9.00;;;;;26.83;41.13;101020.03;5080829;27;45411;-54
2022/08/25 00:55:03;;;;;;;;;15.40;15.40;;;;;26.79;41.29;101015.31;5099238;27;45464;-54
2022/08/25 00:57:33;;;;;;;;;12.60;10.40;;;;;26.74;41.67;101018.81;5098471;27;46231;-52
2022/08/25 00:59:59;;;;;;;;;15.60;14.00;;;;;26.70;42.30;101022.28;5098838;27;45491;-53
2022/08/25 01:02:24;;;;;;;;;13.75;13.75;;;;;26.66;42.00;101016.47;5098577;27;45409;-51
2022/08/25 01:04:50;;;;;;;;;15.25;13.50;;;;;26.62;41.49;101010.69;5098844;27;45318;-53
2022/08/25 01:07:19;;;;;;;;;17.00;15.00;;;;;26.56;41.08;101017.13;5098385;27;47093;-54
2022/08/25 01:09:48;;;;;;;;;11.00;11.00;;;;;26.55;41.42;101014.66;5098587;27;45424;-53
2022/08/25 01:12:14;;;;;;;;;13.20;11.80;;;;;26.55;41.47;101029.13;5098554;27;45353;-53
2022/08/25 01:14:40;;;;;;;;;15.00;12.50;;;;;26.41;41.67;101008.63;5098629;27;45309;-51
2022/08/25 01:17:05;;;;;;;;;16.00;12.25;;;;;26.40;41.12;101011.63;5098288;27;46124;-52
2022/08/25 01:19:33;;;;;;;;;11.50;11.50;;;;;26.23;41.03;100996.03;5098412;27;45420;-53
2022/08/25 01:21:59;;;;;;;;;13.80;13.00;;;;;26.32;41.01;101015.56;5098436;27;45237;-51
2022/08/25 01:24:31;;;;;;;;;9.00;9.00;;;;;26.29;41.54;101024.22;5098559;27;45385;-53
2022/08/25 01:26:57;;;;;;;;;13.20;13.20;;;;;26.24;40.92;101030.41;5098007;27;46815;-51
2022/08/25 01:29:25;;;;;;;;;12.75;11.25;;;;;26.18;41.24;101019.69;5098354;27;45353;-54
2022/08/25 01:32:00;;;;;;;;;10.80;10.00;;;;;26.18;41.39;101017.78;5098253;27;45476;-53
2022/08/25 01:34:28;;;;;;;;;12.60;11.60;;;;;26.15;41.52;101015.53;5098401;27;45355;-55
2022/08/25 01:36:55;;;;;;;;;10.40;9.00;;;;;26.10;41.13;101010.81;5097940;27;46271;-53
2022/08/25 01:39:21;;;;;;;;;9.40;9.20;;;;;26.09;41.56;101014.59;5097914;27;45252;-53
2022/08/25 01:42:11;;;;;;;;;10.50;10.50;;;;;26.04;41.29;101021.84;5098212;27;45242;-52
2022/08/25 01:44:42;;;;;;;;;9.00;9.00;;;;;26.02;41.14;101024.00;5098199;27;45352;-51
2022/08/25 01:47:07;;;;;;;;;12.20;12.20;;;;;25.94;41.47;101014.28;5097716;27;45373;-52
2022/08/25 01:49:34;;;;;;;;;10.50;9.75;;;;;25.97;42.09;101024.72;5098004;27;45247;-53
2022/08/25 01:52:21;;;;;;;;;12.00;10.60;;;;;25.94;42.03;101011.56;5097986;27;45453;-54
2022/08/25 01:54:47;;;;;;;;;12.20;10.00;;;;;25.91;41.72;101017.50;5014752;28;45318;-53
2022/08/25 01:57:12;;;;;;;;;11.75;11.75;;;;;25.86;42.07;101011.94;5014520;28;46459;-51
2022/08/25 01:59:37;;;;;;;;;11.00;11.00;;;;;25.86;42.29;101007.31;5014684;28;45410;-52
2022/08/25 02:02:04;;;;;;;;;9.00;9.00;;;;;25.82;41.79;101011.59;5014963;28;45940;-52
2022/08/25 02:04:31;;;;;;;;;13.80;9.60;;;;;25.79;42.09;101005.84;5015188;28;45395;-54
2022/08/25 02:06:57;;;;;;;;;12.00;12.00;;;;;25.78;41.74;100998.69;5014512;28;46428;-54
2022/08/25 02:09:23;;;;;;;;;11.00;7.80;;;;;25.78;41.79;100994.06;5014716;28;45487;-53
2022/08/25 02:11:49;;;;;;;;;9.50;7.50;;;;;25.76;42.10;100979.84;5014702;28;45250;-53
2022/08/25 02:14:16;;;;;;;;;9.00;9.00;;;;;25.73;42.38;100979.50;5014603;28;45516;-54
2022/08/25 02:16:47;;;;;;;;;11.00;11.00;;;;;25.73;41.73;100985.78;5014434;28;45478;-54
2022/08/25 02:19:12;;;;;;;;;10.00;10.00;;;;;25.71;42.38;100978.94;5014607;28;45347;-54
2022/08/25 02:21:38;;;;;;;;;8.75;8.75;;;;;25.67;41.83;100978.56;5014485;28;45308;-54
2022/08/25 02:24:05;;;;;;;;;8.80;8.80;;;;;25.62;41.75;100971.13;5014963;28;45502;-53
2022/08/25 02:26:30;;;;;;;;;13.20;9.20;;;;;25.62;42.53;100987.47;5014242;28;45463;-53
2022/08/25 02:28:55;;;;;;;;;10.25;10.25;;;;;25.56;42.17;100977.53;5014437;28;45546;-52
2022/08/25 02:31:23;;;;;;;;;13.25;13.25;;;;;25.58;42.69;100969.94;5037641;27;45953;-54
2022/08/25 02:33:49;;;;;;;;;14.60;12.80;;;;;25.58;42.56;100969.94;5097409;27;45474;-53
2022/08/25 02:36:15;;;;;;;;;14.00;12.20;;;;;25.57;42.76;100962.00;5097354;27;46435;-54
2022/08/25 02:38:40;;;;;;;;;12.25;10.00;;;;;25.51;42.57;100955.63;5097160;27;45230;-53
2022/08/25 02:41:25;;;;;;;;;12.50;11.00;;;;;25.46;42.99;100962.88;5097250;27;45248;-53
2022/08/25 02:43:51;;;;;;;;;11.20;11.20;;;;;25.46;43.43;100969.16;5097332;27;45595;-54
2022/08/25 02:46:19;;;;;;;;;16.00;13.75;;;;;25.42;43.12;100954.34;5096990;27;47471;-53
2022/08/25 02:48:46;;;;;;;;;14.80;11.60;;;;;25.36;43.02;100955.28;5097148;27;45355;-54
2022/08/25 02:51:11;;;;;;;;;13.00;13.00;;;;;25.29;43.58;100962.78;5097237;27;45406;-53
2022/08/25 02:53:39;;;;;;;;;13.75;12.00;;;;;25.24;43.98;100957.19;5097262;27;45349;-53
2022/08/25 02:56:06;;;;;;;;;16.60;13.20;;;;;25.19;43.67;100951.66;5096859;27;46423;-53
2022/08/25 02:58:32;;;;;;;;;14.20;13.60;;;;;25.04;43.92;100935.78;5096582;27;45366;-54
2022/08/25 03:00:57;;;;;;;;;14.50;13.00;;;;;25.08;44.28;100937.81;5097042;27;45437;-55
2022/08/25 03:03:22;;;;;;;;;15.25;11.00;;;;;25.06;44.38;100939.09;5097311;27;45473;-54
2022/08/25 03:05:48;;;;;;;;;12.75;10.00;;;;;25.06;43.95;100947.25;5098152;27;45969;-55
2022/08/25 03:08:14;;;;;;;;;14.00;14.00;;;;;25.01;44.24;100942.53;5100571;27;45463;-53
2022/08/25 03:10:40;;;;;;;;;13.40;11.20;;;;;25.00;43.66;100943.59;5100598;27;45438;-54
2022/08/25 03:13:05;;;;;;;;;14.50;14.00;;;;;25.00;43.89;100943.59;5100612;27;45401;-53
2022/08/25 03:15:30;;;;;;;;;9.00;9.00;;;;;24.99;44.03;100950.13;5100470;27;45931;-52
2022/08/25 03:17:56;;;;;;;;;10.50;10.50;;;;;25.01;43.77;100945.25;5081779;27;45336;-54
2022/08/25 03:20:23;;;;;;;;;12.00;11.25;;;;;24.97;43.69;100935.06;5100586;27;45433;-53
2022/08/25 03:22:49;;;;;;;;;13.00;12.25;;;;;25.02;44.49;100935.19;5100449;27;45382;-54
2022/08/25 03:27:59;;;;;;;;;14.60;14.60;;;;;24.92;44.61;100918.63;5099789;27;45559;-54
2022/08/25 03:30:26;;;;;;;;;14.40;12.80;;;;;24.95;44.29;100929.06;5100174;27;45382;-54
2022/08/25 03:32:51;;;;;;;;;14.60;10.20;;;;;24.93;44.04;100923.00;5100234;27;45269;-54
2022/08/25 03:35:17;;;;;;;;;12.75;11.75;;;;;24.91;44.71;100917.81;5100019;27;46115;-52
2022/08/25 03:37:42;;;;;;;;;13.75;12.50;;;;;24.94;44.95;100917.31;5100016;27;45377;-55
2022/08/25 03:40:11;;;;;;;;;13.25;11.00;;;;;24.97;44.31;100921.47;5100049;27;45342;-54
2022/08/25 03:42:42;;;;;;;;;12.80;11.20;;;;;24.96;44.39;100904.31;5100562;27;45634;-55
2022/08/25 03:45:10;;;;;;;;;13.00;11.20;;;;;24.91;44.70;100895.22;5099500;27;45852;-54
2022/08/25 03:47:36;;;;;;;;;14.00;12.40;;;;;24.88;43.58;100905.50;5099820;27;45473;-55
2022/08/25 03:50:03;;;;;;;;;13.25;12.00;;;;;24.83;43.78;100894.50;5099942;27;45342;-55
2022/08/25 03:52:28;;;;;;;;;11.60;10.60;;;;;24.84;43.84;100901.59;5099890;27;45394;-54
2022/08/25 03:54:54;;;;;;;;;12.00;10.75;;;;;24.83;43.74;100893.69;5099805;27;46040;-55
2022/08/25 03:57:19;;;;;;;;;12.50;12.50;;;;;24.82;43.92;100898.28;5099779;27;45452;-57
2022/08/25 03:59:45;;;;;;;;;14.25;13.75;;;;;24.80;43.65;100894.13;5099663;27;45263;-54
2022/08/25 04:02:10;;;;;;;;;12.75;10.75;;;;;24.75;43.19;100881.25;5099943;27;45410;-51
2022/08/25 04:04:35;;;;;;;;;13.00;13.00;;;;;24.79;43.06;100906.09;5099562;27;47072;-55
2022/08/25 04:07:01;;;;;;;;;12.25;10.25;;;;;24.73;43.41;100907.03;5099782;27;45351;-52
2022/08/25 04:09:26;;;;;;;;;11.75;8.25;;;;;24.75;43.26;100910.34;5064627;27;45354;-53
2022/08/25 04:11:52;;;;;;;;;10.00;10.00;;;;;24.78;43.60;100916.16;5099893;27;45314;-54
2022/08/25 04:14:18;;;;;;;;;13.25;11.00;;;;;24.73;44.16;100904.31;5099331;27;45918;-50
2022/08/25 04:16:44;;;;;;;;;12.00;12.00;;;;;24.68;43.45;100890.59;5098196;27;45391;-55
2022/08/25 04:19:10;;;;;;;;;11.00;11.00;;;;;24.79;43.88;100925.13;5099527;27;45384;-54
2022/08/25 04:21:38;;;;;;;;;14.40;12.00;;;;;24.80;43.76;100916.72;5099683;27;45325;-53
2022/08/25 04:24:04;;;;;;;;;12.40;12.40;;;;;24.79;44.41;100919.69;5099259;27;46167;-53
2022/08/25 04:26:34;;;;;;;;;14.60;13.00;;;;;24.75;43.74;100915.78;5099296;27;45329;-52
2022/08/25 04:29:02;;;;;;;;;15.00;11.20;;;;;24.71;43.49;100925.50;5099341;27;45246;-55
2022/08/25 04:31:29;;;;;;;;;14.25;12.00;;;;;24.66;43.39;100926.19;5098146;27;45473;-52
2022/08/25 04:33:55;;;;;;;;;10.40;10.00;;;;;24.66;42.62;100919.94;5099146;27;45362;-52
2022/08/25 04:36:21;;;;;;;;;11.75;11.75;;;;;24.69;43.50;100925.72;5098361;27;45228;-55
2022/08/25 04:38:48;;;;;;;;;11.80;11.80;;;;;24.72;43.54;100936.13;5098884;27;45280;-54
2022/08/25 04:41:16;;;;;;;;;13.80;12.00;;;;;24.73;43.44;100931.50;5099214;27;45516;-55
2022/08/25 04:43:43;;;;;;;;;11.60;10.80;;;;;24.72;43.62;100933.41;5098652;27;46307;-55
2022/08/25 04:46:17;;;;;;;;;12.00;10.80;;;;;24.71;43.39;100942.63;5099042;27;45408;-53
2022/08/25 04:48:42;;;;;;;;;10.20;10.20;;;;;24.68;43.83;100943.09;5115045;27;45410;-55
2022/08/25 04:51:10;;;;;;;;;12.00;10.75;;;;;24.65;44.44;100943.59;5099275;27;46058;-55
2022/08/25 04:53:37;;;;;;;;;17.60;15.80;;;;;24.64;44.14;100945.47;5098864;27;46223;-54
2022/08/25 04:56:11;;;;;;;;;14.80;11.20;;;;;24.62;42.79;100957.66;5099051;27;45196;-53
2022/08/25 04:58:38;;;;;;;;;12.60;11.00;;;;;24.61;43.13;100951.38;5098795;27;45373;-54
2022/08/25 05:01:09;;;;;;;;;11.80;11.20;;;;;24.59;43.10;100958.13;5099262;27;45222;-54
2022/08/25 05:03:36;;;;;;;;;13.40;10.00;;;;;24.56;42.68;100953.97;5098483;27;45280;-54
2022/08/25 05:06:04;;;;;;;;;14.40;12.40;;;;;24.53;42.82;100954.44;5098596;27;45373;-52
2022/08/25 05:08:30;;;;;;;;;9.80;9.20;;;;;24.60;43.08;100965.22;5098651;27;45256;-54
2022/08/25 05:10:55;;;;;;;;;17.50;12.50;;;;;24.61;42.79;100967.72;5098738;27;45540;-55
2022/08/25 05:13:23;;;;;;;;;12.25;12.25;;;;;24.63;43.26;100973.72;5098492;27;46135;-54
2022/08/25 05:15:58;;;;;;;;;12.80;12.00;;;;;24.62;42.83;100982.97;5098438;27;45599;-55
2022/08/25 05:18:25;;;;;;;;;13.20;12.20;;;;;24.58;42.61;100972.78;5098882;27;45299;-54
2022/08/25 05:20:54;;;;;;;;;12.75;12.75;;;;;24.61;42.29;100988.66;5098812;27;45448;-54
2022/08/25 05:23:22;;;;;;;;;13.40;12.20;;;;;24.61;42.53;100991.38;5098740;27;46056;-55
2022/08/25 05:25:49;;;;;;;;;15.00;12.00;;;;;24.59;42.19;100988.84;5098792;27;45436;-53
2022/08/25 05:28:15;;;;;;;;;13.40;11.40;;;;;24.58;42.33;100995.38;5098213;27;45397;-53
2022/08/25 05:30:41;;;;;;;;;19.50;13.25;;;;;24.53;42.74;100991.69;5098450;27;45234;-55
2022/08/25 05:33:08;;;;;;;;;14.20;11.40;;;;;24.52;42.87;100992.75;5079322;27;47955;-55
2022/08/25 05:35:35;;;;;;;;;14.60;11.20;;;;;24.49;42.35;100985.91;5097823;27;45277;-54
2022/08/25 05:38:01;;;;;;;;;10.80;9.60;;;;;24.49;42.42;100996.78;5098123;27;45414;-52
2022/08/25 05:40:27;;;;;;;;;12.00;11.50;;;;;24.37;42.92;100983.13;5098377;27;45747;-53
2022/08/25 05:42:53;;;;;;;;;18.25;14.25;;;;;24.44;43.56;100990.34;5098022;27;46384;-55
2022/08/25 05:45:18;;;;;;;;;12.40;11.60;;;;;24.43;43.54;100989.53;5097753;27;45321;-53
2022/08/25 05:47:44;;;;;;;;;19.00;14.25;;;;;24.44;43.91;100985.78;5098119;27;45386;-54
2022/08/25 05:50:10;;;;;;;;;16.25;14.75;;;;;24.47;43.44;100989.91;5098179;27;45434;-55
2022/08/25 05:52:35;;;;;;;;;14.80;12.60;;;;;24.47;42.97;100987.19;5097755;27;46443;-54
2022/08/25 05:55:01;;;;;;;;;12.75;12.75;;;;;24.46;42.95;100985.53;5097912;27;45382;-55
2022/08/25 05:57:26;;;;;;;;;13.00;13.00;;;;;24.48;43.02;100986.09;5097905;27;45378;-54
2022/08/25 05:59:51;;;;;;;;;15.75;12.50;;;;;24.54;43.39;100987.91;5098103;27;45209;-55
2022/08/25 06:05:00;;;;;;;;;13.80;11.60;;;;;24.54;43.15;100994.19;5097752;27;45292;-54
2022/08/25 06:07:26;;;;;;;;;15.50;12.50;;;;;24.58;43.27;100992.66;5097845;27;45376;-54
2022/08/25 06:09:51;;;;;;;;;17.25;15.75;;;;;24.57;43.20;100988.28;5097939;27;45225;-54
2022/08/25 06:12:17;;;;;;;;;12.50;10.00;;;;;24.60;43.58;100992.41;5097519;27;45435;-55
2022/08/25 06:14:43;;;;;;;;;17.40;13.40;;;;;24.61;43.88;100994.91;5097874;27;45395;-52
2022/08/25 06:17:09;;;;;;;;;15.75;13.00;;;;;24.67;43.24;100989.59;5098165;27;45369;-54
2022/08/25 06:19:35;;;;;;;;;12.20;12.20;;;;;24.69;42.63;100991.00;5098476;27;45500;-53
2022/08/25 06:22:00;;;;;;;;;14.75;12.00;;;;;24.74;42.49;100984.88;5098101;27;46264;-52
2022/08/25 06:24:27;;;;;;;;;11.50;11.50;;;;;24.77;41.88;100987.09;5098318;27;45493;-52
2022/08/25 06:26:53;;;;;;;;;12.80;11.60;;;;;24.82;42.31;100988.09;5097970;27;45345;-52
2022/08/25 06:29:19;;;;;;;;;13.50;10.25;;;;;24.87;42.12;100987.38;5097834;27;45470;-55
2022/08/25 06:31:45;;;;;;;;;9.20;9.20;;;;;24.90;41.22;100973.28;5097396;27;47070;-51
2022/08/25 06:34:11;;;;;;;;;11.50;9.75;;;;;24.92;41.42;100978.50;5098275;27;45274;-52
2022/08/25 06:36:36;;;;;;;;;14.50;11.75;;;;;24.95;41.25;100984.31;5097862;27;45384;-53
2022/08/25 06:39:02;;;;;;;;;12.50;11.75;;;;;24.92;41.20;100973.88;5097633;27;45333;-53
2022/08/25 06:41:29;;;;;;;;;12.60;12.60;;;;;25.01;41.72;100983.34;5081313;27;48297;-50
2022/08/25 06:43:54;;;;;;;;;11.00;11.00;;;;;25.08;41.06;100988.69;5100995;27;45534;-53
2022/08/25 06:46:23;;;;;;;;;15.50;10.00;;;;;25.07;40.92;100973.41;5101009;27;45704;-53
2022/08/25 06:48:49;;;;;;;;;12.80;11.80;;;;;25.20;40.95;100992.28;5101184;27;45523;-53
2022/08/25 06:51:17;;;;;;;;;12.50;11.25;;;;;25.26;41.35;100994.03;5100901;27;47124;-53
2022/08/25 06:53:45;;;;;;;;;12.20;11.00;;;;;25.32;41.33;100989.50;5100755;27;45262;-53
2022/08/25 06:56:11;;;;;;;;;11.60;10.40;;;;;25.28;41.04;100978.28;5100734;27;45339;-54
2022/08/25 06:58:37;;;;;;;;;12.20;12.20;;;;;25.35;41.09;100984.44;5100008;27;45538;-53
2022/08/25 07:01:13;;;;;;;;;11.80;9.80;;;;;25.55;41.06;100994.13;5100359;27;46947;-51
2022/08/25 07:03:40;;;;;;;;;12.40;12.40;;;;;25.68;40.87;100982.94;5100264;27;46100;-51
2022/08/25 07:06:06;;;;;;;;;12.40;10.60;;;;;25.85;40.20;100994.78;5082392;27;45405;-54
2022/08/25 07:08:32;;;;;;;;;13.00;12.00;;;;;26.10;40.04;100996.34;5100613;27;45252;-53
2022/08/25 07:10:57;;;;;;;;;14.00;10.00;;;;;26.70;38.86;100970.41;5100322;27;47050;-52
2022/08/25 07:13:23;;;;;;;;;12.25;10.00;;;;;27.80;36.16;100966.00;5100470;27;45337;-52
2022/08/25 07:15:53;;;;;;;;;10.50;8.25;;;;;29.28;34.37;100979.09;5100414;27;45470;-53
2022/08/25 07:18:18;;;;;;;;;10.80;9.60;;;;;30.27;32.79;100965.50;5100746;27;45405;-53
2022/08/25 07:20:44;;;;;;;;;11.50;9.00;;;;;31.29;30.98;100976.47;5099835;27;45333;-52
2022/08/25 07:23:10;;;;;;;;;12.25;12.25;;;;;31.34;29.84;100962.69;5100256;27;45461;-53
2022/08/25 07:25:35;;;;;;;;;10.75;9.75;;;;;31.79;29.58;100978.19;5100387;27;45449;-54
2022/08/25 07:28:01;;;;;;;;;8.25;8.25;;;;;32.00;28.62;100980.84;5100385;27;45197;-52
2022/08/25 07:30:27;;;;;;;;;11.75;11.75;;;;;32.15;29.29;100983.53;5100183;27;46059;-52
2022/08/25 07:32:52;;;;;;;;;12.25;9.00;;;;;32.27;28.87;100981.22;5099991;27;45255;-55
2022/08/25 07:35:19;;;;;;;;;10.25;8.75;;;;;32.48;28.43;100995.69;5081757;27;45290;-53
2022/08/25 07:37:50;;;;;;;;;9.20;9.20;;;;;32.48;28.92;100992.91;5099922;27;45328;-51
2022/08/25 07:40:21;;;;;;;;;9.00;9.00;;;;;32.84;28.15;100989.06;5099933;27;47076;-53
2022/08/25 07:42:48;;;;;;;;;10.40;9.80;;;;;33.46;26.97;100979.91;5100094;27;45365;-55
2022/08/25 07:45:14;;;;;;;;;14.80;12.80;;;;;33.68;26.99;100987.63;5099912;27;45371;-54
2022/08/25 07:47:40;;;;;;;;;12.40;12.40;;;;;34.65;25.46;100989.00;5100084;27;45435;-55
2022/08/25 07:50:07;;;;;;;;;12.25;12.25;;;;;35.13;24.46;100983.16;5098584;27;45633;-54
2022/08/25 07:52:32;;;;;;;;;13.20;12.00;;;;;35.43;24.57;100984.50;5099689;27;45330;-54
2022/08/25 07:54:58;;;;;;;;;15.25;11.00;;;;;35.77;24.19;100982.44;5081586;27;45354;-54
2022/08/25 07:57:25;;;;;;;;;7.75;7.75;;;;;36.16;24.72;100981.88;5100356;27;45395;-54
2022/08/25 07:59:51;;;;;;;;;9.80;7.80;;;;;36.16;24.83;100979.09;5099765;27;47175;-54
2022/08/25 08:02:16;;;;;;;;;11.00;11.00;;;;;35.95;23.99;100971.25;5099717;27;45350;-54
2022/08/25 08:04:42;;;;;;;;;17.50;11.50;;;;;35.88;24.83;100983.88;5099804;27;45464;-54
2022/08/25 08:07:08;;;;;;;;;8.20;8.20;;;;;36.22;23.92;100977.84;5099899;27;45412;-55
2022/08/25 08:09:33;;;;;;;;;11.25;9.75;;;;;36.37;23.51;100966.38;5099477;27;45497;-55
2022/08/25 08:11:59;;;;;;;;;9.75;9.00;;;;;36.55;23.23;100970.13;5099296;27;45260;-54
2022/08/25 08:14:25;;;;;;;;;11.00;11.00;;;;;36.72;23.20;100969.41;5099687;27;45337;-55
2022/08/25 08:16:50;;;;;;;;;9.25;9.25;;;;;37.05;22.90;100967.16;5099697;27;45437;-54
2022/08/25 08:19:15;;;;;;;;;10.75;8.25;;;;;37.51;22.99;100965.06;5099425;27;45360;-54
2022/08/25 08:21:41;;;;;;;;;11.25;10.00;;;;;37.81;22.34;100961.34;5080842;27;45419;-54
2022/08/25 08:24:07;;;;;;;;;11.75;10.50;;;;;38.27;21.69;100967.44;5099620;27;45230;-53
2022/08/25 08:26:33;;;;;;;;;10.00;9.80;;;;;38.87;21.81;100975.69;5099663;27;45435;-54
2022/08/25 08:28:59;;;;;;;;;14.00;10.00;;;;;39.29;21.17;100977.84;5099134;27;45335;-54
2022/08/25 08:31:25;;;;;;;;;10.60;9.00;;;;;39.86;20.49;100977.34;5099030;27;45396;-54
2022/08/25 08:33:52;;;;;;;;;11.00;9.60;;;;;40.40;20.07;100989.34;5099364;27;45410;-55
2022/08/25 08:36:18;;;;;;;;;12.40;12.20;;;;;41.31;20.62;100994.13;5099440;27;45326;-55
2022/08/25 08:38:45;;;;;;;;;11.00;9.50;;;;;42.93;18.34;101014.53;5098892;27;46521;-55
2022/08/25 08:44:14;;;;;;;;;9.60;9.40;;;;;47.08;15.26;100986.94;5099283;27;45364;-55
2022/08/25 08:46:51;;;;;;;;;14.60;13.40;;;;;48.08;13.91;100976.28;5099217;27;45339;-55
2022/08/25 08:49:40;;;;;;;;;9.00;8.60;;;;;48.69;14.74;100982.09;5098838;27;46388;-54
2022/08/25 08:52:08;;;;;;;;;10.20;10.20;;;;;47.83;14.17;100989.44;5099040;27;45337;-55
2022/08/25 08:54:38;;;;;;;;;9.60;8.60;;;;;46.96;14.39;100990.06;5099177;27;45290;-55
2022/08/25 08:57:11;;;;;;;;;9.00;9.00;;;;;47.07;14.84;100996.56;5099273;27;45450;-54
2022/08/25 08:59:48;;;;;;;;;10.00;8.60;;;;;47.89;13.95;100997.13;5080333;27;47630;-55
2022/08/25 09:02:25;;;;;;;;;11.20;10.20;;;;;49.62;12.68;100990.53;5098591;27;45475;-55
2022/08/25 09:05:00;;;;;;;;;8.00;8.00;;;;;51.03;11.92;101000.66;5098421;27;45457;-54
2022/08/25 09:07:36;;;;;;;;;9.60;9.40;;;;;51.87;11.15;101003.03;5098953;27;45393;-55
2022/08/25 09:10:03;;;;;;;;;9.60;8.20;;;;;52.92;10.25;101006.03;5098511;27;46437;-54
2022/08/25 09:12:50;;;;;;;;;11.40;8.60;;;;;53.94;10.21;101002.44;5098539;27;45464;-55
2022/08/25 09:18:37;;;;;;;;;7.80;7.80;;;;;51.17;11.25;100992.84;5098898;27;45466;-54
2022/08/25 09:21:34;;;;;;;;;10.20;9.20;;;;;51.10;11.72;100998.56;5098329;27;46150;-54
2022/08/25 09:24:21;;;;;;;;;10.60;8.60;;;;;50.12;12.19;101002.47;5015310;28;45474;-55
2022/08/25 09:27:21;;;;;;;;;9.40;7.80;;;;;51.36;11.18;100996.31;5015611;28;45367;-54
2022/08/25 09:30:00;;;;;;;;;12.40;9.80;;;;;52.70;10.73;100994.19;5015794;28;45488;-55
2022/08/25 09:32:29;;;;;;;;;8.60;8.60;;;;;54.04;9.68;100994.94;5015239;28;45440;-55
2022/08/25 09:34:55;;;;;;;;;9.80;9.60;;;;;54.86;9.20;100983.66;5015140;28;45335;-54
2022/08/25 09:37:22;;;;;;;;;9.00;9.00;;;;;55.03;10.12;100997.44;5013295;28;45274;-54
2022/08/25 09:39:47;;;;;;;;;12.60;11.00;;;;;54.28;9.96;101001.31;4995620;28;45451;-52
2022/08/25 09:42:12;;;;;;;;;9.00;8.75;;;;;55.01;9.86;101002.78;4995156;28;46899;-55
2022/08/25 09:44:42;;;;;;;;;9.75;9.75;;;;;55.74;9.77;101005.28;4995324;28;45400;-54
2022/08/25 09:47:16;;;;;;;;;13.00;10.40;;;;;56.16;9.04;101010.97;4995414;28;45476;-56
2022/08/25 09:49:46;;;;;;;;;12.80;11.00;;;;;56.58;9.63;101005.94;4995607;28;45654;-54
2022/08/25 09:52:27;;;;;;;;;13.60;11.40;;;;;56.93;9.30;101012.50;4995424;28;46151;-53
2022/08/25 09:54:54;;;;;;;;;12.00;10.40;;;;;57.19;9.04;101001.00;4995303;28;45400;-56
2022/08/25 09:57:36;;;;;;;;;10.20;10.20;;;;;57.36;9.26;101004.50;4995261;28;45586;-56
2022/08/25 10:00:11;;;;;;;;;11.40;10.60;;;;;57.45;9.53;101001.72;5023000;27;45521;-54
2022/08/25 10:02:37;;;;;;;;;9.80;9.80;;;;;57.46;8.76;100998.41;5077355;27;45902;-55
2022/08/25 10:05:21;;;;;;;;;12.75;11.00;;;;;57.55;8.26;101003.38;5077368;27;45851;-54
2022/08/25 10:07:57;;;;;;;;;9.80;9.00;;;;;57.94;8.81;100995.38;5077424;28;45380;-52
2022/08/25 10:10:36;;;;;;;;;10.40;10.40;;;;;58.20;7.52;100998.81;5077504;27;45364;-55
2022/08/25 10:13:13;;;;;;;;;9.40;9.40;;;;;58.15;8.03;100988.00;5077174;27;46006;-55
2022/08/25 10:15:38;;;;;;;;;10.40;10.40;;;;;58.18;7.41;100990.72;5077118;27;45471;-53
2022/08/25 10:18:19;;;;;;;;;14.25;10.75;;;;;58.35;7.75;100979.81;5077091;28;45412;-53
2022/08/25 10:21:19;;;;;;;;;11.00;10.40;;;;;58.63;7.53;100985.66;5077297;28;45482;-53
2022/08/25 10:23:51;;;;;;;;;13.60;11.60;;;;;58.75;7.89;100976.09;5076624;28;46201;-53
2022/08/25 10:26:29;;;;;;;;;11.60;10.20;;;;;58.81;7.57;100974.19;5077004;28;45441;-53
2022/08/25 10:29:12;;;;;;;;;10.00;9.60;;;;;59.05;7.75;100973.59;5076966;28;45635;-52
2022/08/25 10:31:54;;;;;;;;;11.40;11.00;;;;;58.78;7.43;100978.00;5077178;28;45351;-54
2022/08/25 10:34:26;;;;;;;;;12.20;10.00;;;;;58.68;7.56;100964.94;5077003;27;46029;-53
2022/08/25 10:36:58;;;;;;;;;9.80;9.80;;;;;58.72;7.57;100956.97;5076802;27;45474;-54
2022/08/25 10:40:09;;;;;;;;;12.40;10.20;;;;;58.84;8.63;100955.28;5096194;27;45380;-54
2022/08/25 10:42:44;;;;;;;;;9.00;9.00;;;;;58.79;7.99;100953.81;5097537;27;45237;-53
2022/08/25 10:48:40;;;;;;;;;8.20;8.00;;;;;58.67;7.06;100937.56;5097140;27;45346;-54
2022/08/25 10:51:27;;;;;;;;;10.40;10.40;;;;;58.81;7.78;100941.84;5034421;28;45468;-55
2022/08/25 10:54:04;;;;;;;;;10.20;10.20;;;;;59.03;7.25;100935.97;5034377;28;45327;-52
2022/08/25 10:56:40;;;;;;;;;8.60;8.60;;;;;59.04;7.54;100935.47;5033842;28;46517;-54
2022/08/25 10:59:17;;;;;;;;;10.20;10.20;;;;;58.45;8.21;100935.59;5034021;28;45353;-54
2022/08/25 11:01:59;;;;;;;;;12.60;11.00;;;;;58.17;7.50;100933.91;5033745;28;45388;-54
2022/08/25 11:04:49;;;;;;;;;9.60;8.60;;;;;58.07;8.93;100932.28;5034326;28;45463;-54
2022/08/25 11:07:23;;;;;;;;;0.80;0.80;;;;;58.00;7.73;100932.59;5033747;28;45470;-54
2022/08/25 11:09:53;;;;;;;;;10.00;8.20;;;;;57.62;8.15;100920.13;5033794;28;45352;-55
2022/08/25 11:12:28;;;;;;;;;6.00;6.00;;;;;57.18;7.61;100928.72;5033754;28;45383;-53
2022/08/25 11:15:02;;;;;;;;;10.20;10.20;;;;;56.04;8.58;100919.13;5033829;28;45284;-54
2022/08/25 11:17:38;;;;;;;;;11.60;9.20;;;;;54.99;9.73;100934.00;5033481;28;45996;-54
2022/08/25 11:20:12;;;;;;;;;7.60;7.60;;;;;54.15;9.12;100920.66;5033690;28;45389;-55
2022/08/25 11:23:00;;;;;;;;;10.80;10.20;;;;;53.66;9.65;100929.09;5033854;28;45429;-54
2022/08/25 11:25:33;;;;;;;;;8.40;8.40;;;;;53.55;9.46;100927.25;5013946;28;45535;-54
2022/08/25 11:28:10;;;;;;;;;8.20;8.20;;;;;53.66;9.95;100923.41;5060697;27;45941;-53
2022/08/25 11:30:37;;;;;;;;;9.60;9.00;;;;;53.86;9.18;100924.16;5077399;28;45508;-54
2022/08/25 11:33:03;;;;;;;;;9.20;8.20;;;;;53.72;9.42;100930.16;5077460;28;45375;-53
2022/08/25 11:35:35;;;;;;;;;10.40;8.80;;;;;53.29;9.72;100929.00;5077650;27;45354;-53
2022/08/25 11:38:45;;;;;;;;;10.80;9.40;;;;;53.00;9.42;100928.72;5076857;27;46118;-54